Airfield :
LOGIN :

Register | Disclaimer

   EN    FR    IT 

 










Legend :    VFR   Marginal VFR   IFR   Intensive IFR   Very Intensive IFR
Visi :
Ceiling :
>= 8 km
>= 3000ft
5 to 8 km
1000 to 3000 ft
1500m to 5 km
500 to 1000 ft
800 to 1500m
200 to 500 ft
< 800m
< 200 ft
Symbols :   Thunderstorms  Fog  Heavy snow  Heavy precipitations  Wind > 20 kt
SIGMETs :     Misc.  Thunderstorms  Icing  Turbulence  Mountain Waves  Volcanic Ashes







- Airport Elevation : 935 ft


EBFS - Florennes

CURRENT METAR :
  • 180555Z 16005KT 9999 FEW200 06/M02 Q1019 BLU BLU

EXPIRED METARs :
  • 180525Z VRB02KT 9999 FEW200 06/M02 Q1019 BLU BLU
  • 180455Z VRB01KT 9999 FEW200 06/M02 Q1019 BLU BLU
  • 180451Z VRB01KT 9999 FEW200 06/M02 Q1019 BLU BLU
  • 180425Z AUTO VRB01KT 9999 SCT100/// OVC110/// 06/M02 Q1019 BLU
  • 180355Z AUTO VRB01KT 9999 SCT095/// BKN110/// BKN120/// 07/M02 Q1019 BLU
  • 180325Z AUTO 17006KT 9999 BKN095/// OVC110/// 07/M03 Q1019 BLU

TAF TAF EBFS
Valid from the 17 at 19:00 until the 18 at 07:00 UTC


171541Z 1719/1807 19013KT 9999 SCT320
BECMG 1720/1722 19008KT
No reported NOTAMs for that airfield.



MET'MAP, your aeronautical weather chart ! - Copyright ORBIFLY December 2007 - Disclaimer

ORBIFLY MET'MAP TEAM :

Programming & Development : Alexandra Zaïnal
Concept & Development : Baudouin d'Aumeries
Co-Development & Prog : Marc-Olivier Méhu
Technical & hardware support : Manuel Goepfert

Contact : metmap@orbifly.com




SOURCES & CREDITS :

   NOAA